sensor_id;sensor_type;location;lat;lon;timestamp;P1;durP1;ratioP1;P2;durP2;ratioP2
22480;SDS011;11407;56.964;-2.212;2023-04-23T00:00:24;6.10;;;3.83;;
22480;SDS011;11407;56.964;-2.212;2023-04-23T00:02:51;7.67;;;3.90;;
22480;SDS011;11407;56.964;-2.212;2023-04-23T00:05:17;7.40;;;3.50;;
22480;SDS011;11407;56.964;-2.212;2023-04-23T00:07:43;6.63;;;3.70;;
22480;SDS011;11407;56.964;-2.212;2023-04-23T00:10:08;6.20;;;4.03;;
22480;SDS011;11407;56.964;-2.212;2023-04-23T00:12:34;8.70;;;4.53;;
22480;SDS011;11407;56.964;-2.212;2023-04-23T00:15:00;11.67;;;4.63;;
22480;SDS011;11407;56.964;-2.212;2023-04-23T00:17:25;8.63;;;4.53;;
22480;SDS011;11407;56.964;-2.212;2023-04-23T00:19:51;8.70;;;4.77;;
22480;SDS011;11407;56.964;-2.212;2023-04-23T00:22:16;8.60;;;5.20;;
22480;SDS011;11407;56.964;-2.212;2023-04-23T00:24:42;9.30;;;5.17;;
22480;SDS011;11407;56.964;-2.212;2023-04-23T00:27:07;11.33;;;6.43;;
22480;SDS011;11407;56.964;-2.212;2023-04-23T00:29:32;8.70;;;5.77;;
22480;SDS011;11407;56.964;-2.212;2023-04-23T00:31:57;7.97;;;5.40;;
22480;SDS011;11407;56.964;-2.212;2023-04-23T00:34:23;9.10;;;5.53;;
22480;SDS011;11407;56.964;-2.212;2023-04-23T00:36:48;9.03;;;5.00;;
22480;SDS011;11407;56.964;-2.212;2023-04-23T00:39:13;10.20;;;5.53;;
22480;SDS011;11407;56.964;-2.212;2023-04-23T00:41:39;5.07;;;4.47;;
22480;SDS011;11407;56.964;-2.212;2023-04-23T00:44:05;11.43;;;5.73;;
22480;SDS011;11407;56.964;-2.212;2023-04-23T00:46:30;6.27;;;4.50;;
22480;SDS011;11407;56.964;-2.212;2023-04-23T00:48:56;7.50;;;5.43;;
22480;SDS011;11407;56.964;-2.212;2023-04-23T00:51:22;8.13;;;5.30;;
22480;SDS011;11407;56.964;-2.212;2023-04-23T00:53:48;9.13;;;5.87;;
22480;SDS011;11407;56.964;-2.212;2023-04-23T00:56:14;5.63;;;4.50;;
22480;SDS011;11407;56.964;-2.212;2023-04-23T00:58:39;7.83;;;4.90;;
22480;SDS011;11407;56.964;-2.212;2023-04-23T01:01:04;6.87;;;4.83;;
22480;SDS011;11407;56.964;-2.212;2023-04-23T01:03:30;8.30;;;5.43;;
22480;SDS011;11407;56.964;-2.212;2023-04-23T01:05:56;9.07;;;5.30;;
22480;SDS011;11407;56.964;-2.212;2023-04-23T01:08:22;12.50;;;5.50;;
22480;SDS011;11407;56.964;-2.212;2023-04-23T01:10:48;7.17;;;4.73;;
22480;SDS011;11407;56.964;-2.212;2023-04-23T01:13:13;6.80;;;4.93;;
22480;SDS011;11407;56.964;-2.212;2023-04-23T01:15:39;11.60;;;5.57;;
22480;SDS011;11407;56.964;-2.212;2023-04-23T01:18:05;8.53;;;5.90;;
22480;SDS011;11407;56.964;-2.212;2023-04-23T01:20:32;8.10;;;5.33;;
22480;SDS011;11407;56.964;-2.212;2023-04-23T01:22:57;10.00;;;5.40;;
22480;SDS011;11407;56.964;-2.212;2023-04-23T01:25:23;9.23;;;5.67;;
22480;SDS011;11407;56.964;-2.212;2023-04-23T01:27:48;8.67;;;5.10;;
22480;SDS011;11407;56.964;-2.212;2023-04-23T01:30:13;7.60;;;5.50;;
22480;SDS011;11407;56.964;-2.212;2023-04-23T01:32:39;7.13;;;5.30;;
22480;SDS011;11407;56.964;-2.212;2023-04-23T01:35:04;6.83;;;4.57;;
22480;SDS011;11407;56.964;-2.212;2023-04-23T01:37:31;9.43;;;6.00;;
22480;SDS011;11407;56.964;-2.212;2023-04-23T01:39:58;7.70;;;5.10;;
22480;SDS011;11407;56.964;-2.212;2023-04-23T01:42:23;8.47;;;5.87;;
22480;SDS011;11407;56.964;-2.212;2023-04-23T01:44:48;10.07;;;5.93;;
22480;SDS011;11407;56.964;-2.212;2023-04-23T01:47:14;6.63;;;5.30;;
22480;SDS011;11407;56.964;-2.212;2023-04-23T01:49:39;8.33;;;5.53;;
22480;SDS011;11407;56.964;-2.212;2023-04-23T01:52:05;9.97;;;5.40;;
22480;SDS011;11407;56.964;-2.212;2023-04-23T01:54:30;10.33;;;6.33;;
22480;SDS011;11407;56.964;-2.212;2023-04-23T01:56:55;7.50;;;5.90;;
22480;SDS011;11407;56.964;-2.212;2023-04-23T01:59:21;8.73;;;5.43;;
22480;SDS011;11407;56.964;-2.212;2023-04-23T02:01:47;10.40;;;6.20;;
22480;SDS011;11407;56.964;-2.212;2023-04-23T02:04:13;11.77;;;6.00;;
22480;SDS011;11407;56.964;-2.212;2023-04-23T02:06:38;9.13;;;5.90;;
22480;SDS011;11407;56.964;-2.212;2023-04-23T02:09:04;6.27;;;4.97;;
22480;SDS011;11407;56.964;-2.212;2023-04-23T02:11:29;8.10;;;5.37;;
22480;SDS011;11407;56.964;-2.212;2023-04-23T02:13:55;10.00;;;5.57;;
22480;SDS011;11407;56.964;-2.212;2023-04-23T02:16:20;9.60;;;5.30;;
22480;SDS011;11407;56.964;-2.212;2023-04-23T02:18:45;6.73;;;4.70;;
22480;SDS011;11407;56.964;-2.212;2023-04-23T02:21:10;9.27;;;5.40;;
22480;SDS011;11407;56.964;-2.212;2023-04-23T02:23:37;10.03;;;5.27;;
22480;SDS011;11407;56.964;-2.212;2023-04-23T02:26:02;10.47;;;6.23;;
22480;SDS011;11407;56.964;-2.212;2023-04-23T02:28:28;7.80;;;5.37;;
22480;SDS011;11407;56.964;-2.212;2023-04-23T02:30:53;8.73;;;5.13;;
22480;SDS011;11407;56.964;-2.212;2023-04-23T02:33:18;8.10;;;5.27;;
22480;SDS011;11407;56.964;-2.212;2023-04-23T02:35:44;12.67;;;5.60;;
22480;SDS011;11407;56.964;-2.212;2023-04-23T02:38:09;9.97;;;5.27;;
22480;SDS011;11407;56.964;-2.212;2023-04-23T02:40:34;9.67;;;5.73;;
22480;SDS011;11407;56.964;-2.212;2023-04-23T02:43:00;8.47;;;5.60;;
22480;SDS011;11407;56.964;-2.212;2023-04-23T02:45:25;6.73;;;5.00;;
22480;SDS011;11407;56.964;-2.212;2023-04-23T02:47:50;13.83;;;5.80;;
22480;SDS011;11407;56.964;-2.212;2023-04-23T02:50:17;11.33;;;6.30;;
22480;SDS011;11407;56.964;-2.212;2023-04-23T02:52:42;8.43;;;5.93;;
22480;SDS011;11407;56.964;-2.212;2023-04-23T02:55:08;10.20;;;5.87;;
22480;SDS011;11407;56.964;-2.212;2023-04-23T02:57:33;8.63;;;5.90;;
22480;SDS011;11407;56.964;-2.212;2023-04-23T02:59:59;9.50;;;5.20;;
22480;SDS011;11407;56.964;-2.212;2023-04-23T03:02:24;7.77;;;4.97;;
22480;SDS011;11407;56.964;-2.212;2023-04-23T03:04:50;8.03;;;5.93;;
22480;SDS011;11407;56.964;-2.212;2023-04-23T03:07:15;6.30;;;4.67;;
22480;SDS011;11407;56.964;-2.212;2023-04-23T03:09:41;7.50;;;5.53;;
22480;SDS011;11407;56.964;-2.212;2023-04-23T03:12:07;11.07;;;5.60;;
22480;SDS011;11407;56.964;-2.212;2023-04-23T03:14:32;6.83;;;4.47;;
22480;SDS011;11407;56.964;-2.212;2023-04-23T03:16:57;9.37;;;5.10;;
22480;SDS011;11407;56.964;-2.212;2023-04-23T03:19:22;12.10;;;5.73;;
22480;SDS011;11407;56.964;-2.212;2023-04-23T03:21:48;10.43;;;5.10;;
22480;SDS011;11407;56.964;-2.212;2023-04-23T03:24:13;9.03;;;5.50;;
22480;SDS011;11407;56.964;-2.212;2023-04-23T03:26:41;8.73;;;5.23;;
22480;SDS011;11407;56.964;-2.212;2023-04-23T03:29:06;7.20;;;4.80;;
22480;SDS011;11407;56.964;-2.212;2023-04-23T03:31:31;7.30;;;4.50;;
22480;SDS011;11407;56.964;-2.212;2023-04-23T03:33:57;8.87;;;4.60;;
22480;SDS011;11407;56.964;-2.212;2023-04-23T03:36:22;10.17;;;4.67;;
22480;SDS011;11407;56.964;-2.212;2023-04-23T03:38:47;10.10;;;4.53;;
22480;SDS011;11407;56.964;-2.212;2023-04-23T03:41:12;7.40;;;4.37;;
22480;SDS011;11407;56.964;-2.212;2023-04-23T03:43:38;10.47;;;5.03;;
22480;SDS011;11407;56.964;-2.212;2023-04-23T03:46:03;6.17;;;4.03;;
22480;SDS011;11407;56.964;-2.212;2023-04-23T03:48:28;6.53;;;4.20;;
22480;SDS011;11407;56.964;-2.212;2023-04-23T03:50:53;6.50;;;4.43;;
22480;SDS011;11407;56.964;-2.212;2023-04-23T03:53:19;7.53;;;4.07;;
22480;SDS011;11407;56.964;-2.212;2023-04-23T03:55:44;9.00;;;4.60;;
22480;SDS011;11407;56.964;-2.212;2023-04-23T03:58:09;6.53;;;4.70;;
22480;SDS011;11407;56.964;-2.212;2023-04-23T04:00:35;10.70;;;4.43;;
22480;SDS011;11407;56.964;-2.212;2023-04-23T04:03:00;7.00;;;4.03;;
22480;SDS011;11407;56.964;-2.212;2023-04-23T04:05:26;7.17;;;4.30;;
22480;SDS011;11407;56.964;-2.212;2023-04-23T04:07:51;7.53;;;4.40;;
22480;SDS011;11407;56.964;-2.212;2023-04-23T04:10:16;9.17;;;4.60;;
22480;SDS011;11407;56.964;-2.212;2023-04-23T04:12:42;5.93;;;3.60;;
22480;SDS011;11407;56.964;-2.212;2023-04-23T04:15:09;5.10;;;3.57;;
22480;SDS011;11407;56.964;-2.212;2023-04-23T04:17:34;7.07;;;4.23;;
22480;SDS011;11407;56.964;-2.212;2023-04-23T04:19:59;8.47;;;4.10;;
22480;SDS011;11407;56.964;-2.212;2023-04-23T04:22:25;5.00;;;3.50;;
22480;SDS011;11407;56.964;-2.212;2023-04-23T04:24:50;5.67;;;4.07;;
22480;SDS011;11407;56.964;-2.212;2023-04-23T04:27:16;8.00;;;4.07;;
22480;SDS011;11407;56.964;-2.212;2023-04-23T04:29:42;9.77;;;4.03;;
22480;SDS011;11407;56.964;-2.212;2023-04-23T04:32:07;7.87;;;4.20;;
22480;SDS011;11407;56.964;-2.212;2023-04-23T04:34:32;5.97;;;3.90;;
22480;SDS011;11407;56.964;-2.212;2023-04-23T04:37:00;6.27;;;3.87;;
22480;SDS011;11407;56.964;-2.212;2023-04-23T04:39:25;7.63;;;4.33;;
22480;SDS011;11407;56.964;-2.212;2023-04-23T04:41:50;9.97;;;4.23;;
22480;SDS011;11407;56.964;-2.212;2023-04-23T04:44:16;6.70;;;3.90;;
22480;SDS011;11407;56.964;-2.212;2023-04-23T04:46:41;6.67;;;3.57;;
22480;SDS011;11407;56.964;-2.212;2023-04-23T04:49:07;7.67;;;3.97;;
22480;SDS011;11407;56.964;-2.212;2023-04-23T04:51:32;6.07;;;3.73;;
22480;SDS011;11407;56.964;-2.212;2023-04-23T04:53:58;6.93;;;4.03;;
22480;SDS011;11407;56.964;-2.212;2023-04-23T04:56:23;7.87;;;3.67;;
22480;SDS011;11407;56.964;-2.212;2023-04-23T04:58:49;4.57;;;3.47;;
22480;SDS011;11407;56.964;-2.212;2023-04-23T05:01:15;5.50;;;3.80;;
22480;SDS011;11407;56.964;-2.212;2023-04-23T05:03:40;6.60;;;4.07;;
22480;SDS011;11407;56.964;-2.212;2023-04-23T05:06:05;5.37;;;3.50;;
22480;SDS011;11407;56.964;-2.212;2023-04-23T05:08:31;6.63;;;4.17;;
22480;SDS011;11407;56.964;-2.212;2023-04-23T05:10:56;6.97;;;3.90;;
22480;SDS011;11407;56.964;-2.212;2023-04-23T05:13:21;6.70;;;4.00;;
22480;SDS011;11407;56.964;-2.212;2023-04-23T05:15:46;6.07;;;3.77;;
22480;SDS011;11407;56.964;-2.212;2023-04-23T05:18:12;4.93;;;3.60;;
22480;SDS011;11407;56.964;-2.212;2023-04-23T05:20:37;7.37;;;4.17;;
22480;SDS011;11407;56.964;-2.212;2023-04-23T05:23:02;7.53;;;3.90;;
22480;SDS011;11407;56.964;-2.212;2023-04-23T05:25:28;5.50;;;3.40;;
22480;SDS011;11407;56.964;-2.212;2023-04-23T05:27:53;7.80;;;4.20;;
22480;SDS011;11407;56.964;-2.212;2023-04-23T05:30:19;7.73;;;3.93;;
22480;SDS011;11407;56.964;-2.212;2023-04-23T05:32:44;6.93;;;3.97;;
22480;SDS011;11407;56.964;-2.212;2023-04-23T05:35:10;7.50;;;3.60;;
22480;SDS011;11407;56.964;-2.212;2023-04-23T05:37:35;6.30;;;3.50;;
22480;SDS011;11407;56.964;-2.212;2023-04-23T05:40:00;7.30;;;4.03;;
22480;SDS011;11407;56.964;-2.212;2023-04-23T05:42:26;7.87;;;4.10;;
22480;SDS011;11407;56.964;-2.212;2023-04-23T05:44:52;7.03;;;3.73;;
22480;SDS011;11407;56.964;-2.212;2023-04-23T05:47:17;8.27;;;3.73;;
22480;SDS011;11407;56.964;-2.212;2023-04-23T05:49:42;11.40;;;4.13;;
22480;SDS011;11407;56.964;-2.212;2023-04-23T05:52:07;7.17;;;3.43;;
22480;SDS011;11407;56.964;-2.212;2023-04-23T05:54:33;5.80;;;3.37;;
22480;SDS011;11407;56.964;-2.212;2023-04-23T05:56:58;9.40;;;3.67;;
22480;SDS011;11407;56.964;-2.212;2023-04-23T05:59:23;10.03;;;3.40;;
22480;SDS011;11407;56.964;-2.212;2023-04-23T06:01:48;8.23;;;3.23;;
22480;SDS011;11407;56.964;-2.212;2023-04-23T06:04:14;7.23;;;3.50;;
22480;SDS011;11407;56.964;-2.212;2023-04-23T06:06:41;10.57;;;3.90;;
22480;SDS011;11407;56.964;-2.212;2023-04-23T06:09:06;7.77;;;3.50;;
22480;SDS011;11407;56.964;-2.212;2023-04-23T06:11:31;5.90;;;3.60;;
22480;SDS011;11407;56.964;-2.212;2023-04-23T06:13:57;9.80;;;3.73;;
22480;SDS011;11407;56.964;-2.212;2023-04-23T06:16:23;9.63;;;3.93;;
22480;SDS011;11407;56.964;-2.212;2023-04-23T06:18:48;8.43;;;3.70;;
22480;SDS011;11407;56.964;-2.212;2023-04-23T06:21:13;8.40;;;3.30;;
22480;SDS011;11407;56.964;-2.212;2023-04-23T06:23:39;9.20;;;3.20;;
22480;SDS011;11407;56.964;-2.212;2023-04-23T06:26:04;6.50;;;2.87;;
22480;SDS011;11407;56.964;-2.212;2023-04-23T06:28:30;8.10;;;2.97;;
22480;SDS011;11407;56.964;-2.212;2023-04-23T06:30:55;6.47;;;2.83;;
22480;SDS011;11407;56.964;-2.212;2023-04-23T06:33:20;7.30;;;3.00;;
22480;SDS011;11407;56.964;-2.212;2023-04-23T06:35:45;9.73;;;2.97;;
22480;SDS011;11407;56.964;-2.212;2023-04-23T06:38:11;5.33;;;2.90;;
22480;SDS011;11407;56.964;-2.212;2023-04-23T06:40:36;6.23;;;2.60;;
22480;SDS011;11407;56.964;-2.212;2023-04-23T06:43:01;5.60;;;2.90;;
22480;SDS011;11407;56.964;-2.212;2023-04-23T06:45:29;4.93;;;2.53;;
22480;SDS011;11407;56.964;-2.212;2023-04-23T06:47:56;6.33;;;2.57;;
22480;SDS011;11407;56.964;-2.212;2023-04-23T06:50:21;8.10;;;2.53;;
22480;SDS011;11407;56.964;-2.212;2023-04-23T06:52:46;10.57;;;3.13;;
22480;SDS011;11407;56.964;-2.212;2023-04-23T06:55:11;11.30;;;2.70;;
22480;SDS011;11407;56.964;-2.212;2023-04-23T06:57:37;8.23;;;2.87;;
22480;SDS011;11407;56.964;-2.212;2023-04-23T07:00:02;7.80;;;2.83;;
22480;SDS011;11407;56.964;-2.212;2023-04-23T07:02:29;8.37;;;3.30;;
22480;SDS011;11407;56.964;-2.212;2023-04-23T07:04:55;10.33;;;3.33;;
22480;SDS011;11407;56.964;-2.212;2023-04-23T07:07:21;8.43;;;2.67;;
22480;SDS011;11407;56.964;-2.212;2023-04-23T07:09:46;7.77;;;2.77;;
22480;SDS011;11407;56.964;-2.212;2023-04-23T07:12:11;9.50;;;2.43;;
22480;SDS011;11407;56.964;-2.212;2023-04-23T07:14:37;6.33;;;2.47;;
22480;SDS011;11407;56.964;-2.212;2023-04-23T07:17:02;6.57;;;2.70;;
22480;SDS011;11407;56.964;-2.212;2023-04-23T07:19:27;6.10;;;2.40;;
22480;SDS011;11407;56.964;-2.212;2023-04-23T07:21:53;10.07;;;2.60;;
22480;SDS011;11407;56.964;-2.212;2023-04-23T07:24:18;8.03;;;2.30;;
22480;SDS011;11407;56.964;-2.212;2023-04-23T07:26:43;7.17;;;2.83;;
22480;SDS011;11407;56.964;-2.212;2023-04-23T07:29:09;7.10;;;2.73;;
22480;SDS011;11407;56.964;-2.212;2023-04-23T07:31:35;6.33;;;2.70;;
22480;SDS011;11407;56.964;-2.212;2023-04-23T07:34:01;7.80;;;2.40;;
22480;SDS011;11407;56.964;-2.212;2023-04-23T07:36:26;6.53;;;2.20;;
22480;SDS011;11407;56.964;-2.212;2023-04-23T07:38:51;7.50;;;2.87;;
22480;SDS011;11407;56.964;-2.212;2023-04-23T07:41:17;4.90;;;2.60;;
22480;SDS011;11407;56.964;-2.212;2023-04-23T07:43:42;10.77;;;2.90;;
22480;SDS011;11407;56.964;-2.212;2023-04-23T07:46:07;7.37;;;2.50;;
22480;SDS011;11407;56.964;-2.212;2023-04-23T07:48:33;6.03;;;2.37;;
22480;SDS011;11407;56.964;-2.212;2023-04-23T07:50:59;9.87;;;2.50;;
22480;SDS011;11407;56.964;-2.212;2023-04-23T07:53:24;6.30;;;2.43;;
22480;SDS011;11407;56.964;-2.212;2023-04-23T07:55:52;12.43;;;3.30;;
22480;SDS011;11407;56.964;-2.212;2023-04-23T07:58:18;5.90;;;2.50;;
22480;SDS011;11407;56.964;-2.212;2023-04-23T08:00:43;10.40;;;3.90;;
22480;SDS011;11407;56.964;-2.212;2023-04-23T08:03:08;10.27;;;3.73;;
22480;SDS011;11407;56.964;-2.212;2023-04-23T08:05:33;9.67;;;3.97;;
22480;SDS011;11407;56.964;-2.212;2023-04-23T08:08:01;13.03;;;4.30;;
22480;SDS011;11407;56.964;-2.212;2023-04-23T08:10:26;13.27;;;4.70;;
22480;SDS011;11407;56.964;-2.212;2023-04-23T08:12:51;16.57;;;5.73;;
22480;SDS011;11407;56.964;-2.212;2023-04-23T08:15:16;15.13;;;5.27;;
22480;SDS011;11407;56.964;-2.212;2023-04-23T08:17:42;18.07;;;5.47;;
22480;SDS011;11407;56.964;-2.212;2023-04-23T08:20:07;21.17;;;6.20;;
22480;SDS011;11407;56.964;-2.212;2023-04-23T08:22:33;22.07;;;6.37;;
22480;SDS011;11407;56.964;-2.212;2023-04-23T08:24:58;24.07;;;6.87;;
22480;SDS011;11407;56.964;-2.212;2023-04-23T08:27:23;26.60;;;6.90;;
22480;SDS011;11407;56.964;-2.212;2023-04-23T08:29:48;21.23;;;5.77;;
22480;SDS011;11407;56.964;-2.212;2023-04-23T08:32:14;17.53;;;6.10;;
22480;SDS011;11407;56.964;-2.212;2023-04-23T08:34:39;21.70;;;6.37;;
22480;SDS011;11407;56.964;-2.212;2023-04-23T08:37:04;21.67;;;6.23;;
22480;SDS011;11407;56.964;-2.212;2023-04-23T08:39:31;23.73;;;6.10;;
22480;SDS011;11407;56.964;-2.212;2023-04-23T08:41:57;27.13;;;6.80;;
22480;SDS011;11407;56.964;-2.212;2023-04-23T08:44:26;25.27;;;6.70;;
22480;SDS011;11407;56.964;-2.212;2023-04-23T08:46:53;22.07;;;6.17;;
22480;SDS011;11407;56.964;-2.212;2023-04-23T08:49:18;22.87;;;6.73;;
22480;SDS011;11407;56.964;-2.212;2023-04-23T08:51:53;26.60;;;6.10;;
22480;SDS011;11407;56.964;-2.212;2023-04-23T08:54:24;27.87;;;6.77;;
22480;SDS011;11407;56.964;-2.212;2023-04-23T08:56:51;21.07;;;6.67;;
22480;SDS011;11407;56.964;-2.212;2023-04-23T08:59:17;20.93;;;6.20;;
22480;SDS011;11407;56.964;-2.212;2023-04-23T09:01:42;28.20;;;6.50;;
22480;SDS011;11407;56.964;-2.212;2023-04-23T09:04:07;26.43;;;6.10;;
22480;SDS011;11407;56.964;-2.212;2023-04-23T09:06:34;27.80;;;6.90;;
22480;SDS011;11407;56.964;-2.212;2023-04-23T09:08:59;23.60;;;6.30;;
22480;SDS011;11407;56.964;-2.212;2023-04-23T09:11:25;20.03;;;6.43;;
22480;SDS011;11407;56.964;-2.212;2023-04-23T09:13:51;25.73;;;6.33;;
22480;SDS011;11407;56.964;-2.212;2023-04-23T09:16:16;27.47;;;6.67;;
22480;SDS011;11407;56.964;-2.212;2023-04-23T09:18:41;25.97;;;6.20;;
22480;SDS011;11407;56.964;-2.212;2023-04-23T09:21:07;21.53;;;6.07;;
22480;SDS011;11407;56.964;-2.212;2023-04-23T09:23:32;23.40;;;6.20;;
22480;SDS011;11407;56.964;-2.212;2023-04-23T09:25:58;23.67;;;6.07;;
22480;SDS011;11407;56.964;-2.212;2023-04-23T09:28:36;21.00;;;5.97;;
22480;SDS011;11407;56.964;-2.212;2023-04-23T09:31:04;23.40;;;5.80;;
22480;SDS011;11407;56.964;-2.212;2023-04-23T09:33:29;21.10;;;5.73;;
22480;SDS011;11407;56.964;-2.212;2023-04-23T09:35:56;26.97;;;6.73;;
22480;SDS011;11407;56.964;-2.212;2023-04-23T09:38:22;21.23;;;5.73;;
22480;SDS011;11407;56.964;-2.212;2023-04-23T09:40:47;18.93;;;5.40;;
22480;SDS011;11407;56.964;-2.212;2023-04-23T09:43:14;17.80;;;5.57;;
22480;SDS011;11407;56.964;-2.212;2023-04-23T09:45:48;15.20;;;5.27;;
22480;SDS011;11407;56.964;-2.212;2023-04-23T09:48:14;16.93;;;4.67;;
22480;SDS011;11407;56.964;-2.212;2023-04-23T09:50:39;17.87;;;4.77;;
22480;SDS011;11407;56.964;-2.212;2023-04-23T09:53:08;13.77;;;3.97;;
22480;SDS011;11407;56.964;-2.212;2023-04-23T09:55:34;13.00;;;3.27;;
22480;SDS011;11407;56.964;-2.212;2023-04-23T09:58:04;8.80;;;3.00;;
22480;SDS011;11407;56.964;-2.212;2023-04-23T10:00:34;7.13;;;2.63;;
22480;SDS011;11407;56.964;-2.212;2023-04-23T10:02:59;6.43;;;2.57;;
22480;SDS011;11407;56.964;-2.212;2023-04-23T10:05:25;5.23;;;2.40;;
22480;SDS011;11407;56.964;-2.212;2023-04-23T10:07:51;6.23;;;2.50;;
22480;SDS011;11407;56.964;-2.212;2023-04-23T10:10:17;5.13;;;2.30;;
22480;SDS011;11407;56.964;-2.212;2023-04-23T10:12:42;7.20;;;2.30;;
22480;SDS011;11407;56.964;-2.212;2023-04-23T10:15:08;4.83;;;2.30;;
22480;SDS011;11407;56.964;-2.212;2023-04-23T10:17:35;7.30;;;2.53;;
22480;SDS011;11407;56.964;-2.212;2023-04-23T10:20:00;6.13;;;2.60;;
22480;SDS011;11407;56.964;-2.212;2023-04-23T10:22:26;5.53;;;2.53;;
22480;SDS011;11407;56.964;-2.212;2023-04-23T10:24:53;5.73;;;2.63;;
22480;SDS011;11407;56.964;-2.212;2023-04-23T10:27:21;8.63;;;3.13;;
22480;SDS011;11407;56.964;-2.212;2023-04-23T10:29:46;9.30;;;2.90;;
22480;SDS011;11407;56.964;-2.212;2023-04-23T10:32:12;6.60;;;3.03;;
22480;SDS011;11407;56.964;-2.212;2023-04-23T10:34:38;8.37;;;3.47;;
22480;SDS011;11407;56.964;-2.212;2023-04-23T10:37:03;8.33;;;3.20;;
22480;SDS011;11407;56.964;-2.212;2023-04-23T10:39:31;9.27;;;3.30;;
22480;SDS011;11407;56.964;-2.212;2023-04-23T10:41:56;6.00;;;2.60;;
22480;SDS011;11407;56.964;-2.212;2023-04-23T10:44:25;9.73;;;3.50;;
22480;SDS011;11407;56.964;-2.212;2023-04-23T10:46:56;7.50;;;3.47;;
22480;SDS011;11407;56.964;-2.212;2023-04-23T10:49:23;9.23;;;2.73;;
22480;SDS011;11407;56.964;-2.212;2023-04-23T10:51:48;5.83;;;2.60;;
22480;SDS011;11407;56.964;-2.212;2023-04-23T10:54:17;8.47;;;2.83;;
22480;SDS011;11407;56.964;-2.212;2023-04-23T10:56:43;8.40;;;2.87;;
22480;SDS011;11407;56.964;-2.212;2023-04-23T10:59:18;6.93;;;3.00;;
22480;SDS011;11407;56.964;-2.212;2023-04-23T11:01:45;6.83;;;2.83;;
22480;SDS011;11407;56.964;-2.212;2023-04-23T11:04:24;11.63;;;2.80;;
22480;SDS011;11407;56.964;-2.212;2023-04-23T11:06:51;9.13;;;3.17;;
22480;SDS011;11407;56.964;-2.212;2023-04-23T11:12:01;5.90;;;3.00;;
22480;SDS011;11407;56.964;-2.212;2023-04-23T11:14:33;7.03;;;2.93;;
22480;SDS011;11407;56.964;-2.212;2023-04-23T11:17:00;5.37;;;3.10;;
22480;SDS011;11407;56.964;-2.212;2023-04-23T11:19:25;5.00;;;2.87;;
22480;SDS011;11407;56.964;-2.212;2023-04-23T11:26:57;7.77;;;3.10;;
22480;SDS011;11407;56.964;-2.212;2023-04-23T11:29:23;7.13;;;3.00;;
22480;SDS011;11407;56.964;-2.212;2023-04-23T11:31:48;8.70;;;3.47;;
22480;SDS011;11407;56.964;-2.212;2023-04-23T11:34:15;8.23;;;2.80;;
22480;SDS011;11407;56.964;-2.212;2023-04-23T11:36:40;8.93;;;3.20;;
22480;SDS011;11407;56.964;-2.212;2023-04-23T11:39:06;9.13;;;2.97;;
22480;SDS011;11407;56.964;-2.212;2023-04-23T11:41:32;6.93;;;2.80;;
22480;SDS011;11407;56.964;-2.212;2023-04-23T11:43:59;11.23;;;3.27;;
22480;SDS011;11407;56.964;-2.212;2023-04-23T11:46:24;7.07;;;3.30;;
22480;SDS011;11407;56.964;-2.212;2023-04-23T11:48:50;7.53;;;2.80;;
22480;SDS011;11407;56.964;-2.212;2023-04-23T11:51:15;8.03;;;3.00;;
22480;SDS011;11407;56.964;-2.212;2023-04-23T11:53:47;7.20;;;2.90;;
22480;SDS011;11407;56.964;-2.212;2023-04-23T11:56:15;8.37;;;3.10;;
22480;SDS011;11407;56.964;-2.212;2023-04-23T11:58:40;7.80;;;2.93;;
22480;SDS011;11407;56.964;-2.212;2023-04-23T12:01:06;10.70;;;3.27;;
22480;SDS011;11407;56.964;-2.212;2023-04-23T12:03:32;8.83;;;3.97;;
22480;SDS011;11407;56.964;-2.212;2023-04-23T12:05:57;11.00;;;3.87;;
22480;SDS011;11407;56.964;-2.212;2023-04-23T12:08:22;9.97;;;3.20;;
22480;SDS011;11407;56.964;-2.212;2023-04-23T12:10:55;11.27;;;3.40;;
22480;SDS011;11407;56.964;-2.212;2023-04-23T12:13:23;10.23;;;2.93;;
22480;SDS011;11407;56.964;-2.212;2023-04-23T12:18:15;13.70;;;3.87;;
22480;SDS011;11407;56.964;-2.212;2023-04-23T12:20:41;10.67;;;3.53;;
22480;SDS011;11407;56.964;-2.212;2023-04-23T12:23:06;11.40;;;3.80;;
22480;SDS011;11407;56.964;-2.212;2023-04-23T12:25:32;13.13;;;3.70;;
22480;SDS011;11407;56.964;-2.212;2023-04-23T12:27:58;15.03;;;4.43;;
22480;SDS011;11407;56.964;-2.212;2023-04-23T12:30:27;12.93;;;3.53;;
22480;SDS011;11407;56.964;-2.212;2023-04-23T12:32:57;15.97;;;3.80;;
22480;SDS011;11407;56.964;-2.212;2023-04-23T12:35:36;13.10;;;3.70;;
22480;SDS011;11407;56.964;-2.212;2023-04-23T12:38:03;12.37;;;3.63;;
22480;SDS011;11407;56.964;-2.212;2023-04-23T12:40:28;12.53;;;3.43;;
22480;SDS011;11407;56.964;-2.212;2023-04-23T12:42:53;11.83;;;3.70;;
22480;SDS011;11407;56.964;-2.212;2023-04-23T12:45:19;9.13;;;3.00;;
22480;SDS011;11407;56.964;-2.212;2023-04-23T12:47:44;15.27;;;3.57;;
22480;SDS011;11407;56.964;-2.212;2023-04-23T12:50:10;11.43;;;3.00;;
22480;SDS011;11407;56.964;-2.212;2023-04-23T12:52:36;9.27;;;3.00;;
22480;SDS011;11407;56.964;-2.212;2023-04-23T12:55:02;18.00;;;4.50;;
22480;SDS011;11407;56.964;-2.212;2023-04-23T12:57:28;11.10;;;3.30;;
22480;SDS011;11407;56.964;-2.212;2023-04-23T12:59:54;16.57;;;3.40;;
22480;SDS011;11407;56.964;-2.212;2023-04-23T13:02:19;10.43;;;2.90;;
22480;SDS011;11407;56.964;-2.212;2023-04-23T13:04:44;6.83;;;2.70;;
22480;SDS011;11407;56.964;-2.212;2023-04-23T13:07:10;9.97;;;3.00;;
22480;SDS011;11407;56.964;-2.212;2023-04-23T13:09:35;12.77;;;3.13;;
22480;SDS011;11407;56.964;-2.212;2023-04-23T13:12:00;11.63;;;3.67;;
22480;SDS011;11407;56.964;-2.212;2023-04-23T13:14:26;12.83;;;3.47;;
22480;SDS011;11407;56.964;-2.212;2023-04-23T13:16:52;8.10;;;2.70;;
22480;SDS011;11407;56.964;-2.212;2023-04-23T13:19:17;13.73;;;3.50;;
22480;SDS011;11407;56.964;-2.212;2023-04-23T13:21:42;12.50;;;3.27;;
22480;SDS011;11407;56.964;-2.212;2023-04-23T13:24:07;10.17;;;3.23;;
22480;SDS011;11407;56.964;-2.212;2023-04-23T13:26:33;9.90;;;2.77;;
22480;SDS011;11407;56.964;-2.212;2023-04-23T13:28:59;8.67;;;2.80;;
22480;SDS011;11407;56.964;-2.212;2023-04-23T13:31:24;8.97;;;3.00;;
22480;SDS011;11407;56.964;-2.212;2023-04-23T13:33:50;11.20;;;2.50;;
22480;SDS011;11407;56.964;-2.212;2023-04-23T13:36:15;11.00;;;2.83;;
22480;SDS011;11407;56.964;-2.212;2023-04-23T13:38:41;11.27;;;3.73;;
22480;SDS011;11407;56.964;-2.212;2023-04-23T13:41:06;8.90;;;3.40;;
22480;SDS011;11407;56.964;-2.212;2023-04-23T13:43:31;12.80;;;3.23;;
22480;SDS011;11407;56.964;-2.212;2023-04-23T13:45:57;13.90;;;3.23;;
22480;SDS011;11407;56.964;-2.212;2023-04-23T13:48:22;14.77;;;3.30;;
22480;SDS011;11407;56.964;-2.212;2023-04-23T13:50:52;10.43;;;3.20;;
22480;SDS011;11407;56.964;-2.212;2023-04-23T13:53:18;8.53;;;2.80;;
22480;SDS011;11407;56.964;-2.212;2023-04-23T13:55:43;8.40;;;3.17;;
22480;SDS011;11407;56.964;-2.212;2023-04-23T13:58:08;8.93;;;2.80;;
22480;SDS011;11407;56.964;-2.212;2023-04-23T14:00:33;10.17;;;2.97;;
22480;SDS011;11407;56.964;-2.212;2023-04-23T14:02:59;9.00;;;2.97;;
22480;SDS011;11407;56.964;-2.212;2023-04-23T14:05:24;8.03;;;3.40;;
22480;SDS011;11407;56.964;-2.212;2023-04-23T14:07:49;11.77;;;3.37;;
22480;SDS011;11407;56.964;-2.212;2023-04-23T14:10:15;9.37;;;2.50;;
22480;SDS011;11407;56.964;-2.212;2023-04-23T14:12:40;6.27;;;2.50;;
22480;SDS011;11407;56.964;-2.212;2023-04-23T14:15:06;6.53;;;2.27;;
22480;SDS011;11407;56.964;-2.212;2023-04-23T14:17:31;9.53;;;2.63;;
22480;SDS011;11407;56.964;-2.212;2023-04-23T14:19:56;7.93;;;2.90;;
22480;SDS011;11407;56.964;-2.212;2023-04-23T14:22:22;9.73;;;3.10;;
22480;SDS011;11407;56.964;-2.212;2023-04-23T14:24:54;8.60;;;3.17;;
22480;SDS011;11407;56.964;-2.212;2023-04-23T14:27:21;10.90;;;3.10;;
22480;SDS011;11407;56.964;-2.212;2023-04-23T14:29:50;7.07;;;2.63;;
22480;SDS011;11407;56.964;-2.212;2023-04-23T14:32:16;7.27;;;2.70;;